createdAt,value
2018-08-04T00:02:16.672Z,16.73
2018-08-04T00:04:50.999Z,15.67
2018-08-04T00:07:26.945Z,15.10
2018-08-04T00:10:01.361Z,15.90
2018-08-04T00:12:36.431Z,17.13
2018-08-04T00:15:10.764Z,17.50
2018-08-04T00:17:47.447Z,16.03
2018-08-04T00:20:23.336Z,16.43
2018-08-04T00:22:57.916Z,17.63
2018-08-04T00:25:33.941Z,16.90
2018-08-04T00:28:08.531Z,16.47
2018-08-04T00:30:43.283Z,16.47
2018-08-04T00:33:17.761Z,15.13
2018-08-04T00:35:53.466Z,16.97
2018-08-04T00:38:28.022Z,17.37
2018-08-04T00:41:02.506Z,17.43
2018-08-04T00:43:37.391Z,16.10
2018-08-04T00:46:12.171Z,16.23
2018-08-04T00:48:48.095Z,15.80
2018-08-04T00:51:22.724Z,16.93
2018-08-04T00:53:58.252Z,16.00
2018-08-04T00:56:32.878Z,16.07
2018-08-04T00:59:07.495Z,19.73
2018-08-04T01:01:43.715Z,15.63
2018-08-04T01:04:18.230Z,15.53
2018-08-04T01:06:54.625Z,16.67
2018-08-04T01:09:28.998Z,16.57
2018-08-04T01:12:03.866Z,14.87
2018-08-04T01:14:38.659Z,16.07
2018-08-04T01:17:14.955Z,15.77
2018-08-04T01:19:49.599Z,16.13
2018-08-04T01:22:25.331Z,21.30
2018-08-04T01:25:01.033Z,16.70
2018-08-04T01:27:35.919Z,16.00
2018-08-04T01:30:10.658Z,15.57
2018-08-04T01:32:45.050Z,15.73
2018-08-04T01:35:20.828Z,15.43
2018-08-04T01:37:55.155Z,14.20
2018-08-04T01:40:29.862Z,15.90
2018-08-04T01:43:04.807Z,14.77
2018-08-04T01:45:40.679Z,15.07
2018-08-04T01:48:16.867Z,15.97
2018-08-04T01:50:53.091Z,15.37
2018-08-04T01:53:28.907Z,14.20
2018-08-04T01:56:03.887Z,15.07
2018-08-04T01:58:38.395Z,17.37
2018-08-04T02:01:21.862Z,15.33
2018-08-04T02:03:55.965Z,14.80
2018-08-04T02:06:30.572Z,14.83
2018-08-04T02:09:07.581Z,15.27
2018-08-04T02:11:41.963Z,15.10
2018-08-04T02:14:16.321Z,14.23
2018-08-04T02:16:51.020Z,15.47
2018-08-04T02:19:25.371Z,16.30
2018-08-04T02:22:01.117Z,14.50
2018-08-04T02:24:36.663Z,15.27
2018-08-04T02:27:11.352Z,13.43
2018-08-04T02:29:45.610Z,13.60
2018-08-04T02:32:20.011Z,15.17
2018-08-04T02:34:55.667Z,14.60
2018-08-04T02:37:31.389Z,15.40
2018-08-04T02:40:06.195Z,15.13
2018-08-04T02:42:42.798Z,16.47
2018-08-04T02:45:17.123Z,15.93
2018-08-04T02:47:51.587Z,14.07
2018-08-04T02:50:27.436Z,13.60
2018-08-04T02:53:09.533Z,14.47
2018-08-04T02:55:43.856Z,14.90
2018-08-04T02:58:18.431Z,15.27
2018-08-04T03:01:07.032Z,17.73
2018-08-04T03:03:41.520Z,14.90
2018-08-04T03:06:16.445Z,14.83
2018-08-04T03:08:52.431Z,16.13
2018-08-04T03:11:26.863Z,20.40
2018-08-04T03:14:01.312Z,15.50
2018-08-04T03:16:35.796Z,16.63
2018-08-04T03:19:11.028Z,17.47
2018-08-04T03:21:46.996Z,18.07
2018-08-04T03:24:22.955Z,15.80
2018-08-04T03:26:57.386Z,15.40
2018-08-04T03:29:32.268Z,15.13
2018-08-04T03:32:07.040Z,16.13
2018-08-04T03:34:43.711Z,16.40
2018-08-04T03:37:19.791Z,17.20
2018-08-04T03:39:56.035Z,17.40
2018-08-04T03:42:30.588Z,15.33
2018-08-04T03:45:05.044Z,15.30
2018-08-04T03:47:39.719Z,15.77
2018-08-04T03:50:16.120Z,16.50
2018-08-04T03:52:50.669Z,16.10
2018-08-04T03:55:26.563Z,17.00
2018-08-04T03:58:02.828Z,15.33
2018-08-04T04:00:45.634Z,16.37
2018-08-04T04:03:21.319Z,16.63
2018-08-04T04:05:55.803Z,15.97
2018-08-04T04:08:31.418Z,16.50
2018-08-04T04:11:05.871Z,15.90
2018-08-04T04:13:40.674Z,17.83
2018-08-04T04:16:14.955Z,16.33
2018-08-04T04:18:50.027Z,15.87
2018-08-04T04:21:25.992Z,16.87
2018-08-04T04:24:02.206Z,16.80
2018-08-04T04:26:36.711Z,17.90
2018-08-04T04:29:11.551Z,17.67
2018-08-04T04:31:46.029Z,17.37
2018-08-04T04:34:21.819Z,16.53
2018-08-04T04:36:58.188Z,16.13
2018-08-04T04:39:32.533Z,19.17
2018-08-04T04:42:06.888Z,18.60
2018-08-04T04:44:41.284Z,17.33
2018-08-04T04:47:15.660Z,16.37
2018-08-04T04:49:51.721Z,15.60
2018-08-04T04:52:26.162Z,16.40
2018-08-04T04:55:03.779Z,15.60
2018-08-04T04:57:38.267Z,15.70
2018-08-04T05:00:14.151Z,15.13
2018-08-04T05:02:50.023Z,15.60
2018-08-04T05:05:24.529Z,18.33
2018-08-04T05:08:00.859Z,16.53
2018-08-04T05:10:35.599Z,15.67
2018-08-04T05:13:10.088Z,15.73
2018-08-04T05:15:45.044Z,18.67
2018-08-04T05:18:19.528Z,16.47
2018-08-04T05:20:55.682Z,15.60
2018-08-04T05:23:30.211Z,15.93
2018-08-04T05:26:06.135Z,16.40
2018-08-04T05:28:40.631Z,17.17
2018-08-04T05:31:14.947Z,17.97
2018-08-04T05:33:51.019Z,16.90
2018-08-04T05:36:28.024Z,15.27
2018-08-04T05:39:02.569Z,16.40
2018-08-04T05:41:37.098Z,15.13
2018-08-04T05:44:11.271Z,17.90
2018-08-04T05:46:45.890Z,16.30
2018-08-04T05:49:21.657Z,16.40
2018-08-04T05:51:55.735Z,16.97
2018-08-04T05:54:30.024Z,16.20
2018-08-04T05:57:04.235Z,15.77
2018-08-04T05:59:39.977Z,15.50
2018-08-04T06:02:15.510Z,15.37
2018-08-04T06:04:49.878Z,15.53
2018-08-04T06:07:25.589Z,15.57
2018-08-04T06:10:01.538Z,17.07
2018-08-04T06:12:35.742Z,16.23
2018-08-04T06:15:09.951Z,16.47
2018-08-04T06:17:44.054Z,15.90
2018-08-04T06:20:19.934Z,16.43
2018-08-04T06:22:54.052Z,16.97
2018-08-04T06:25:29.932Z,20.23
2018-08-04T06:28:04.382Z,17.87
2018-08-04T06:30:38.660Z,18.30
2018-08-04T06:33:14.401Z,17.03
2018-08-04T06:35:50.071Z,17.03
2018-08-04T06:38:25.487Z,17.03
2018-08-04T06:40:59.791Z,16.30
2018-08-04T06:43:33.910Z,19.73
2018-08-04T06:46:08.306Z,15.07
2018-08-04T06:48:49.218Z,17.30
2018-08-04T06:51:23.590Z,17.97
2018-08-04T06:53:58.986Z,16.03
2018-08-04T06:56:33.462Z,18.33
2018-08-04T06:59:17.065Z,18.37
2018-08-04T07:01:52.266Z,16.70
2018-08-04T07:04:26.367Z,17.47
2018-08-04T07:08:32.026Z,16.50
2018-08-04T07:11:07.393Z,15.37
2018-08-04T07:13:41.698Z,16.63
2018-08-04T07:16:16.194Z,16.77
2018-08-04T07:18:50.375Z,15.40
2018-08-04T07:21:26.268Z,17.17
2018-08-04T07:24:02.096Z,14.90
2018-08-04T07:26:36.328Z,16.63
2018-08-04T07:29:10.523Z,15.33
2018-08-04T07:31:46.352Z,15.00
2018-08-04T07:34:21.904Z,15.17
2018-08-04T07:36:57.649Z,15.57
2018-08-04T07:39:31.803Z,15.77
2018-08-04T07:42:06.262Z,15.60
2018-08-04T07:44:40.583Z,15.20
2018-08-04T07:47:16.054Z,14.23
2018-08-04T07:49:51.334Z,14.13
2018-08-04T07:52:25.573Z,14.60
2018-08-04T07:54:59.907Z,14.47
2018-08-04T07:57:34.119Z,18.90
2018-08-04T08:00:10.260Z,15.53
2018-08-04T08:02:46.283Z,13.50
2018-08-04T08:05:21.908Z,15.90
2018-08-04T08:07:57.799Z,13.13
2018-08-04T08:10:31.945Z,14.93
2018-08-04T08:13:06.490Z,14.30
2018-08-04T08:15:40.938Z,13.63
2018-08-04T08:18:15.478Z,14.43
2018-08-04T08:20:51.327Z,12.50
2018-08-04T08:23:25.544Z,14.90
2018-08-04T08:26:02.732Z,14.47
2018-08-04T08:28:38.989Z,13.87
2018-08-04T08:31:13.500Z,13.67
2018-08-04T08:33:49.259Z,14.73
2018-08-04T08:36:27.674Z,14.40
2018-08-04T08:39:01.748Z,12.17
2018-08-04T08:41:36.083Z,14.80
2018-08-04T08:44:10.195Z,11.90
2018-08-04T08:46:44.547Z,13.10
2018-08-04T08:49:20.350Z,12.03
2018-08-04T08:51:54.580Z,12.70
2018-08-04T08:54:28.721Z,12.17
2018-08-04T08:57:02.977Z,13.03
2018-08-04T08:59:38.601Z,12.67
2018-08-04T09:02:14.187Z,12.30
2018-08-04T09:04:48.534Z,12.47
2018-08-04T09:07:25.518Z,11.17
2018-08-04T09:09:59.806Z,10.30
2018-08-04T09:12:34.202Z,12.33
2018-08-04T09:15:09.951Z,11.27
2018-08-04T09:17:44.167Z,11.50
2018-08-04T09:20:20.254Z,10.20
2018-08-04T09:22:54.826Z,14.17
2018-08-04T09:25:30.495Z,10.23
2018-08-04T09:28:04.709Z,11.03
2018-08-04T09:30:40.562Z,11.33
2018-08-04T09:33:14.698Z,10.57
2018-08-04T09:35:50.128Z,10.70
2018-08-04T09:38:25.658Z,10.43
2018-08-04T09:40:59.721Z,10.63
2018-08-04T09:43:33.861Z,10.60
2018-08-04T09:46:07.928Z,10.70
2018-08-04T09:48:49.951Z,11.63
2018-08-04T09:51:24.059Z,11.50
2018-08-04T09:53:58.478Z,11.53
2018-08-04T09:56:32.620Z,10.70
2018-08-04T09:59:08.110Z,12.60
2018-08-04T10:01:43.718Z,10.10
2018-08-04T10:04:17.955Z,10.40
2018-08-04T10:06:53.743Z,10.60
2018-08-04T10:09:29.470Z,19.07
2018-08-04T10:12:03.804Z,10.53
2018-08-04T10:14:39.510Z,8.93
2018-08-04T10:17:14.179Z,10.03
2018-08-04T10:19:48.302Z,9.30
2018-08-04T10:22:32.442Z,11.30
2018-08-04T10:25:08.732Z,13.07
2018-08-04T10:27:43.094Z,11.50
2018-08-04T10:30:18.578Z,11.40
2018-08-04T10:32:52.804Z,11.20
2018-08-04T10:35:28.448Z,12.47
2018-08-04T10:38:03.603Z,10.70
2018-08-04T10:40:37.731Z,10.67
2018-08-04T10:43:12.020Z,11.97
2018-08-04T12:07:51.838Z,11.50
2018-08-04T12:10:26.253Z,12.93
2018-08-04T12:13:02.293Z,11.23
2018-08-04T12:15:36.473Z,12.30
2018-08-04T12:18:12.408Z,11.80
2018-08-04T12:20:48.460Z,12.13
2018-08-04T12:23:22.738Z,13.00
2018-08-04T12:25:58.841Z,11.23
2018-08-04T12:28:34.378Z,11.97
2018-08-04T12:31:08.462Z,11.90
2018-08-04T12:33:44.141Z,11.97
2018-08-04T12:36:27.261Z,11.30
2018-08-04T12:39:01.380Z,11.60
2018-08-04T12:41:35.488Z,26.83
2018-08-04T12:44:09.846Z,11.60
2018-08-04T12:46:44.082Z,12.57
2018-08-04T12:49:19.738Z,11.40
2018-08-04T12:51:53.885Z,12.00
2018-08-04T12:54:28.760Z,11.33
2018-08-04T12:57:02.811Z,10.70
2018-08-04T12:59:38.200Z,11.80
2018-08-04T13:02:14.370Z,12.47
2018-08-04T13:04:50.154Z,10.93
2018-08-04T13:07:25.918Z,11.23
2018-08-04T13:10:00.233Z,11.70
2018-08-04T13:12:34.419Z,11.37
2018-08-04T13:15:09.055Z,11.47
2018-08-04T13:17:44.603Z,11.60
2018-08-04T13:20:20.540Z,10.67
2018-08-04T13:22:54.606Z,11.03
2018-08-04T13:25:30.287Z,12.03
2018-08-04T13:28:04.575Z,11.63
2018-08-04T13:30:43.955Z,11.27
2018-08-04T13:33:18.398Z,11.43
2018-08-04T13:35:54.039Z,11.63
2018-08-04T13:38:30.086Z,12.40
2018-08-04T13:41:04.320Z,10.70
2018-08-04T13:43:38.606Z,10.60
2018-08-04T13:46:13.194Z,10.30
2018-08-04T13:48:54.238Z,10.53
2018-08-04T13:51:28.990Z,12.00
2018-08-04T13:54:03.146Z,11.40
2018-08-04T13:56:37.583Z,12.47
2018-08-04T13:59:13.234Z,10.60
2018-08-04T14:01:49.075Z,16.97
2018-08-04T14:04:24.621Z,11.47
2018-08-04T14:07:00.373Z,12.60
2018-08-04T14:09:35.594Z,12.03
2018-08-04T14:12:09.904Z,12.37
2018-08-04T14:14:45.290Z,11.10
2018-08-04T14:17:20.987Z,11.33
2018-08-04T14:19:55.274Z,13.00
2018-08-04T14:22:33.008Z,18.00
2018-08-04T14:25:08.584Z,18.43
2018-08-04T14:27:42.784Z,15.00
2018-08-04T14:30:17.150Z,13.43
2018-08-04T14:32:52.578Z,13.73
2018-08-04T14:35:28.510Z,9.10
2018-08-04T14:38:03.998Z,8.17
2018-08-04T14:40:38.247Z,8.80
2018-08-04T14:43:12.335Z,8.30
2018-08-04T14:45:46.664Z,9.47
2018-08-04T14:48:20.949Z,10.03
2018-08-04T14:50:56.574Z,12.87
2018-08-04T14:53:30.726Z,12.53
2018-08-04T14:56:05.062Z,11.53
2018-08-04T14:58:40.686Z,11.30
2018-08-04T15:01:16.355Z,12.13
2018-08-04T15:03:51.890Z,12.90
2018-08-04T15:06:27.960Z,12.57
2018-08-04T15:09:03.187Z,12.07
2018-08-04T15:11:40.290Z,12.57
2018-08-04T15:14:14.822Z,12.63
2018-08-04T15:16:49.405Z,12.63
2018-08-04T15:19:23.756Z,17.20
2018-08-04T15:21:59.802Z,15.07
2018-08-04T15:24:35.740Z,14.00
2018-08-04T15:27:09.927Z,14.47
2018-08-04T15:29:44.127Z,13.50
2018-08-04T15:32:20.798Z,16.83
2018-08-04T15:34:56.435Z,13.77
2018-08-04T15:37:31.995Z,15.43
2018-08-04T15:40:06.090Z,13.83
2018-08-04T15:42:40.406Z,15.23
2018-08-04T15:45:14.636Z,14.13
2018-08-04T15:47:49.454Z,15.90
2018-08-04T15:50:25.137Z,15.87
2018-08-04T15:52:59.493Z,16.17
2018-08-04T15:55:33.635Z,16.17
2018-08-04T15:58:09.066Z,16.60
2018-08-04T16:03:37.683Z,16.20
2018-08-04T16:06:21.016Z,15.63
2018-08-04T16:08:56.766Z,17.00
2018-08-04T16:11:31.030Z,17.50
2018-08-04T16:14:05.402Z,15.43
2018-08-04T16:16:40.348Z,16.20
2018-08-04T16:19:14.498Z,16.73
2018-08-04T16:21:50.221Z,16.50
2018-08-04T16:24:26.112Z,15.73
2018-08-04T16:27:00.304Z,18.30
2018-08-04T16:29:34.626Z,16.43
2018-08-04T16:32:18.130Z,18.50
2018-08-04T16:34:53.638Z,15.70
2018-08-04T16:37:30.335Z,18.63
2018-08-04T16:40:05.132Z,15.20
2018-08-04T16:42:39.399Z,15.53
2018-08-04T16:45:13.563Z,14.67
2018-08-04T16:47:47.887Z,13.17
2018-08-04T16:50:23.689Z,13.37
2018-08-04T16:52:57.781Z,14.70
2018-08-04T16:55:32.133Z,14.73
2018-08-04T16:58:07.863Z,12.43
2018-08-04T17:03:35.697Z,11.23
2018-08-04T17:06:19.799Z,12.23
2018-08-04T17:08:55.495Z,11.83
2018-08-04T17:11:31.129Z,12.10
2018-08-04T17:14:05.447Z,10.77
2018-08-04T17:16:39.495Z,12.00
2018-08-04T17:19:13.756Z,10.53
2018-08-04T17:21:49.609Z,11.17
2018-08-04T17:24:25.475Z,9.80
2018-08-04T17:26:59.643Z,11.07
2018-08-04T17:29:33.856Z,13.00
2018-08-04T17:32:08.547Z,10.90
2018-08-04T17:34:44.528Z,11.37
2018-08-04T17:37:20.295Z,11.70
2018-08-04T17:39:54.473Z,11.30
2018-08-04T17:42:30.238Z,11.90
2018-08-04T17:45:05.260Z,10.80
2018-08-04T17:47:39.683Z,11.77
2018-08-04T17:50:15.106Z,11.13
2018-08-04T17:52:49.567Z,12.03
2018-08-04T17:55:23.762Z,14.63
2018-08-04T17:57:59.189Z,11.63
2018-08-04T18:00:33.334Z,12.77
2018-08-04T18:03:08.846Z,12.73
2018-08-04T18:05:44.438Z,12.70
2018-08-04T18:08:20.249Z,11.57
2018-08-04T18:10:54.354Z,13.67
2018-08-04T18:13:29.938Z,13.40
2018-08-04T18:16:04.055Z,13.33
2018-08-04T18:18:38.266Z,12.23
2018-08-04T18:21:14.287Z,12.87
2018-08-04T18:23:49.402Z,15.60
2018-08-04T18:26:24.876Z,13.23
2018-08-04T18:28:59.515Z,13.97
2018-08-04T18:31:33.785Z,13.57
2018-08-04T18:34:09.532Z,12.97
2018-08-04T18:36:45.583Z,14.13
2018-08-04T18:39:19.878Z,12.57
2018-08-04T18:41:54.148Z,13.40
2018-08-04T18:44:28.367Z,14.40
2018-08-04T18:47:02.454Z,13.80
2018-08-04T18:49:37.765Z,14.70
2018-08-04T18:52:11.996Z,14.40
2018-08-04T18:54:46.064Z,15.03
2018-08-04T18:57:30.239Z,17.67
2018-08-04T19:00:05.817Z,13.70
2018-08-04T19:02:41.382Z,15.20
2018-08-04T19:05:16.887Z,16.33
2018-08-04T19:07:52.949Z,14.33
2018-08-04T19:10:27.059Z,13.90
2018-08-04T19:13:01.434Z,19.63
2018-08-04T19:15:35.906Z,19.10
2018-08-04T19:18:10.270Z,22.73
2018-08-04T19:20:46.063Z,18.17
2018-08-04T19:23:20.236Z,17.80
2018-08-04T19:25:55.417Z,19.93
2018-08-04T19:28:29.835Z,19.33
2018-08-04T19:31:03.906Z,18.80
2018-08-04T19:33:40.011Z,19.07
2018-08-04T19:36:14.267Z,17.67
2018-08-04T19:38:49.938Z,18.97
2018-08-04T19:41:24.226Z,18.47
2018-08-04T19:43:58.523Z,22.47
2018-08-04T19:46:32.635Z,21.07
2018-08-04T19:49:08.887Z,22.47
2018-08-04T19:51:43.149Z,23.60
2018-08-04T19:54:17.804Z,22.77
2018-08-04T19:56:52.246Z,22.27
2018-08-04T19:59:27.923Z,25.83
2018-08-04T20:02:04.191Z,25.20
2018-08-04T20:07:27.450Z,24.70
2018-08-04T20:10:01.956Z,26.13
2018-08-04T20:12:36.842Z,27.80
2018-08-04T20:15:11.555Z,28.73
2018-08-04T20:17:45.912Z,26.03
2018-08-04T20:20:21.620Z,22.27
2018-08-04T20:22:56.099Z,20.97
2018-08-04T20:25:32.101Z,23.00
2018-08-04T20:28:06.456Z,26.13
2018-08-04T20:30:40.783Z,21.00
2018-08-04T20:33:15.259Z,25.77
2018-08-04T20:35:51.214Z,19.93
2018-08-04T20:38:26.565Z,21.27
2018-08-04T20:41:01.240Z,20.33
2018-08-04T20:43:36.706Z,20.63
2018-08-04T20:46:11.287Z,21.67
2018-08-04T20:48:51.928Z,22.50
2018-08-04T20:51:27.779Z,21.60
2018-08-04T20:54:02.201Z,22.13
2018-08-04T20:56:37.744Z,22.20
2018-08-04T20:59:13.719Z,19.13
2018-08-04T21:01:59.158Z,19.73
2018-08-04T21:04:34.776Z,21.83
2018-08-04T21:07:11.150Z,22.63
2018-08-04T21:09:47.030Z,20.90
2018-08-04T21:12:21.412Z,28.00
2018-08-04T21:14:57.744Z,20.50
2018-08-04T21:17:32.147Z,18.60
2018-08-04T21:20:16.103Z,19.20
2018-08-04T21:22:50.763Z,20.00
2018-08-04T21:25:26.581Z,20.63
2018-08-04T21:28:00.896Z,20.83
2018-08-04T21:30:35.495Z,21.57
2018-08-04T21:33:10.268Z,21.47
2018-08-04T21:35:46.001Z,22.37
2018-08-04T21:38:21.924Z,21.67
2018-08-04T21:40:56.503Z,23.67
2018-08-04T21:43:30.911Z,25.57
2018-08-04T21:46:06.874Z,21.50
2018-08-04T21:48:50.915Z,19.53
2018-08-04T21:51:27.091Z,19.67
2018-08-04T21:54:03.234Z,19.53
2018-08-04T21:56:37.699Z,21.00
2018-08-04T21:59:13.457Z,21.13
2018-08-04T22:01:55.436Z,19.37
2018-08-04T22:04:29.562Z,17.97
2018-08-04T22:07:44.319Z,19.17
2018-08-04T22:10:18.678Z,16.37
2018-08-04T22:12:53.049Z,18.03
2018-08-04T22:15:27.671Z,17.30
2018-08-04T22:18:01.918Z,18.03
2018-08-04T22:20:38.051Z,19.20
2018-08-04T22:23:12.799Z,17.70
2018-08-04T22:25:48.739Z,17.90
2018-08-04T22:28:23.055Z,17.07
2018-08-04T22:30:59.425Z,16.90
2018-08-04T22:33:37.121Z,18.27
2018-08-04T22:36:11.915Z,17.20
2018-08-04T22:38:48.095Z,15.77
2018-08-04T22:41:22.549Z,15.63
2018-08-04T22:43:56.939Z,16.80
2018-08-04T22:46:31.528Z,16.40
2018-08-04T22:49:12.385Z,17.53
2018-08-04T22:51:48.246Z,16.73
2018-08-04T22:54:22.735Z,15.93
2018-08-04T22:56:58.892Z,17.43
2018-08-04T22:59:34.745Z,16.67
2018-08-04T23:02:11.229Z,17.63
2018-08-04T23:04:45.563Z,15.47
2018-08-04T23:07:27.549Z,16.80
2018-08-04T23:10:01.898Z,15.40
2018-08-04T23:12:40.165Z,17.57
2018-08-04T23:15:14.503Z,15.37
2018-08-04T23:17:49.039Z,17.30
2018-08-04T23:20:24.840Z,19.60
2018-08-04T23:22:59.991Z,17.83
2018-08-04T23:25:35.847Z,18.00
2018-08-04T23:28:11.130Z,17.37
2018-08-04T23:30:47.005Z,16.30
2018-08-04T23:33:21.446Z,16.83
2018-08-04T23:35:57.457Z,19.10
2018-08-04T23:38:33.290Z,16.70
2018-08-04T23:41:07.823Z,17.33
2018-08-04T23:43:42.308Z,18.63
2018-08-04T23:46:16.735Z,16.40
2018-08-04T23:51:43.996Z,17.23
2018-08-04T23:54:18.364Z,18.20
2018-08-04T23:56:54.069Z,18.67
2018-08-04T23:59:29.631Z,16.43
